createdAt,value
2022-11-17T00:01:26.458Z,7.50
2022-11-17T00:03:53.084Z,7.50
2022-11-17T00:06:22.592Z,7.60
2022-11-17T00:08:49.296Z,7.50
2022-11-17T00:11:15.886Z,7.50
2022-11-17T00:14:00.808Z,7.50
2022-11-17T00:16:27.322Z,7.50
2022-11-17T00:19:12.657Z,7.40
2022-11-17T00:21:39.400Z,7.40
2022-11-17T00:24:06.467Z,7.50
2022-11-17T00:26:34.284Z,7.40
2022-11-17T00:29:02.189Z,7.30
2022-11-17T00:31:48.271Z,7.30
2022-11-17T00:34:16.222Z,7.30
2022-11-17T00:36:44.263Z,7.30
2022-11-17T00:39:11.541Z,7.30
2022-11-17T00:41:38.069Z,7.30
2022-11-17T00:44:04.722Z,7.40
2022-11-17T00:46:31.381Z,7.40
2022-11-17T00:48:57.947Z,7.40
2022-11-17T00:51:25.468Z,7.40
2022-11-17T00:53:52.297Z,7.40
2022-11-17T00:56:18.963Z,7.40
2022-11-17T00:58:45.636Z,7.40
2022-11-17T01:01:12.637Z,7.40
2022-11-17T01:03:39.259Z,7.40
2022-11-17T01:06:07.266Z,7.40
2022-11-17T01:08:34.529Z,7.40
2022-11-17T01:11:08.239Z,7.40
2022-11-17T01:13:35.251Z,7.40
2022-11-17T01:16:02.824Z,7.40
2022-11-17T01:18:29.408Z,7.40
2022-11-17T01:20:55.909Z,7.40
2022-11-17T01:23:22.450Z,7.40
2022-11-17T01:25:48.962Z,7.40
2022-11-17T01:28:15.606Z,7.40
2022-11-17T01:30:42.155Z,7.40
2022-11-17T01:33:08.701Z,7.40
2022-11-17T01:35:35.309Z,7.40
2022-11-17T01:38:01.803Z,7.40
2022-11-17T01:40:28.459Z,7.50
2022-11-17T01:42:54.957Z,7.40
2022-11-17T01:45:23.769Z,7.40
2022-11-17T01:48:01.293Z,7.40
2022-11-17T01:50:30.813Z,7.50
2022-11-17T01:52:59.661Z,7.40
2022-11-17T01:55:31.002Z,7.40
2022-11-17T01:58:01.004Z,7.50
2022-11-17T02:00:28.008Z,7.50
2022-11-17T02:02:54.855Z,7.40
2022-11-17T02:05:40.281Z,7.30
2022-11-17T02:08:07.214Z,7.20
2022-11-17T02:10:35.078Z,7.10
2022-11-17T02:13:01.822Z,7.10
2022-11-17T02:15:28.822Z,7.20
2022-11-17T02:17:56.186Z,7.20
2022-11-17T02:20:43.095Z,7.10
2022-11-17T02:23:37.356Z,7.00
2022-11-17T02:26:22.803Z,6.90
2022-11-17T02:28:54.940Z,6.90
2022-11-17T02:31:36.870Z,6.80
2022-11-17T02:34:29.881Z,6.90
2022-11-17T02:36:59.592Z,7.00
2022-11-17T02:43:10.723Z,6.90
2022-11-17T02:45:41.268Z,6.80
2022-11-17T02:48:11.702Z,6.80
2022-11-17T02:50:39.738Z,6.80
2022-11-17T02:53:07.491Z,6.80
2022-11-17T02:55:35.164Z,6.80
2022-11-17T02:58:01.755Z,6.80
2022-11-17T03:00:29.421Z,6.90
2022-11-17T03:02:58.974Z,7.00
2022-11-17T03:05:34.514Z,7.00
2022-11-17T03:08:19.990Z,7.00
2022-11-17T03:10:46.522Z,7.00
2022-11-17T03:13:20.793Z,7.00
2022-11-17T03:16:06.273Z,6.90
2022-11-17T03:18:41.110Z,6.90
2022-11-17T03:21:16.423Z,6.90
2022-11-17T03:24:04.180Z,7.00
2022-11-17T03:26:35.478Z,7.10
2022-11-17T03:29:02.555Z,7.00
2022-11-17T03:31:29.978Z,7.00
2022-11-17T03:33:57.406Z,6.90
2022-11-17T03:36:29.618Z,6.90
2022-11-17T03:39:01.740Z,6.80
2022-11-17T03:41:31.618Z,6.80
2022-11-17T03:43:59.122Z,6.70
2022-11-17T03:46:26.567Z,6.70
2022-11-17T03:49:11.959Z,6.60
2022-11-17T03:51:38.630Z,6.60
2022-11-17T03:54:05.409Z,6.60
2022-11-17T03:56:45.509Z,6.60
2022-11-17T03:59:22.305Z,6.50
2022-11-17T04:01:48.902Z,6.50
2022-11-17T04:04:16.429Z,6.50
2022-11-17T04:06:43.003Z,6.50
2022-11-17T04:09:09.525Z,6.50
2022-11-17T04:11:54.776Z,6.50
2022-11-17T04:14:39.761Z,6.50
2022-11-17T04:17:06.571Z,6.50
2022-11-17T04:19:33.120Z,6.60
2022-11-17T04:21:59.643Z,6.50
2022-11-17T04:24:26.247Z,6.50
2022-11-17T04:27:11.679Z,6.60
2022-11-17T04:29:38.202Z,6.70
2022-11-17T04:32:04.719Z,6.60
2022-11-17T04:34:31.251Z,6.70
2022-11-17T04:36:57.794Z,6.80
2022-11-17T04:39:24.488Z,6.80
2022-11-17T04:41:54.078Z,6.80
2022-11-17T04:44:22.971Z,6.90
2022-11-17T04:46:49.852Z,6.90
2022-11-17T04:49:17.324Z,6.80
2022-11-17T04:51:44.090Z,6.80
2022-11-17T04:54:12.173Z,6.70
2022-11-17T04:56:38.860Z,6.70
2022-11-17T04:59:06.055Z,6.70
2022-11-17T05:01:32.916Z,6.70
2022-11-17T05:04:03.640Z,6.80
2022-11-17T05:06:34.231Z,6.70
2022-11-17T05:09:05.685Z,6.80
2022-11-17T05:11:51.027Z,6.70
2022-11-17T05:14:19.260Z,6.70
2022-11-17T05:17:09.522Z,6.70
2022-11-17T05:19:38.554Z,6.70
2022-11-17T05:22:25.505Z,6.70
2022-11-17T05:24:52.373Z,6.70
2022-11-17T05:27:19.098Z,6.70
2022-11-17T05:29:45.816Z,6.60
2022-11-17T05:32:12.374Z,6.70
2022-11-17T05:34:38.891Z,6.60
2022-11-17T05:37:06.337Z,6.60
2022-11-17T05:39:33.950Z,6.60
2022-11-17T05:42:00.594Z,6.60
2022-11-17T05:44:27.243Z,6.60
2022-11-17T05:46:53.836Z,6.70
2022-11-17T05:49:20.380Z,6.60
2022-11-17T05:51:51.389Z,6.60
2022-11-17T05:54:19.146Z,6.50
2022-11-17T05:56:54.531Z,6.50
2022-11-17T05:59:28.274Z,6.50
2022-11-17T06:02:07.616Z,6.50
2022-11-17T06:04:34.388Z,6.50
2022-11-17T06:07:01.740Z,6.40
2022-11-17T06:09:30.572Z,6.30
2022-11-17T06:12:02.472Z,6.30
2022-11-17T06:14:32.110Z,6.20
2022-11-17T06:17:01.032Z,6.20
2022-11-17T06:19:33.176Z,6.20
2022-11-17T06:22:15.307Z,6.20
2022-11-17T06:24:42.819Z,6.20
2022-11-17T06:27:09.859Z,6.20
2022-11-17T06:29:42.443Z,6.20
2022-11-17T06:32:10.907Z,6.20
2022-11-17T06:34:37.605Z,6.10
2022-11-17T06:37:04.177Z,6.20
2022-11-17T06:39:30.678Z,6.20
2022-11-17T06:41:57.241Z,6.20
2022-11-17T06:44:23.748Z,6.20
2022-11-17T06:46:50.269Z,6.30
2022-11-17T06:49:16.813Z,6.30
2022-11-17T06:51:45.377Z,6.20
2022-11-17T06:54:14.345Z,6.20
2022-11-17T06:56:40.899Z,6.30
2022-11-17T06:59:07.402Z,6.30
2022-11-17T07:01:34.088Z,6.30
2022-11-17T07:04:00.619Z,6.30
2022-11-17T07:06:27.187Z,6.30
2022-11-17T07:08:53.732Z,6.30
2022-11-17T07:11:20.318Z,6.30
2022-11-17T07:13:46.834Z,6.40
2022-11-17T07:16:20.134Z,6.40
2022-11-17T07:18:49.937Z,6.50
2022-11-17T07:21:16.510Z,6.50
2022-11-17T07:23:44.752Z,6.40
2022-11-17T07:26:11.786Z,6.50
2022-11-17T07:28:38.561Z,6.60
2022-11-17T07:31:06.466Z,6.60
2022-11-17T07:33:33.003Z,6.60
2022-11-17T07:36:06.567Z,6.70
2022-11-17T07:38:34.491Z,6.70
2022-11-17T07:41:01.390Z,6.80
2022-11-17T07:43:28.147Z,6.80
2022-11-17T07:45:54.782Z,7.00
2022-11-17T07:48:21.463Z,7.00
2022-11-17T07:50:48.098Z,7.00
2022-11-17T07:53:14.747Z,7.10
2022-11-17T07:55:41.267Z,7.00
2022-11-17T07:58:07.784Z,6.90
2022-11-17T08:00:34.468Z,7.00
2022-11-17T08:03:04.487Z,7.20
2022-11-17T08:05:32.179Z,7.20
2022-11-17T08:07:59.321Z,7.20
2022-11-17T08:10:31.288Z,7.10
2022-11-17T08:12:59.588Z,7.10
2022-11-17T08:15:26.651Z,7.10
2022-11-17T08:17:57.539Z,7.10
2022-11-17T08:20:25.094Z,7.20
2022-11-17T08:22:52.323Z,7.10
2022-11-17T08:25:19.794Z,7.10
2022-11-17T08:27:46.431Z,7.10
2022-11-17T08:30:13.179Z,7.10
2022-11-17T08:32:46.045Z,7.20
2022-11-17T08:35:12.572Z,7.30
2022-11-17T08:37:40.206Z,7.30
2022-11-17T08:40:07.068Z,7.30
2022-11-17T08:42:33.622Z,7.30
2022-11-17T08:45:00.422Z,7.30
2022-11-17T08:47:26.923Z,7.40
2022-11-17T08:49:53.417Z,7.50
2022-11-17T08:52:19.933Z,7.50
2022-11-17T08:54:46.511Z,7.50
2022-11-17T08:57:13.099Z,7.50
2022-11-17T08:59:39.658Z,7.60
2022-11-17T09:02:06.528Z,7.60
2022-11-17T09:04:33.041Z,7.70
2022-11-17T09:06:59.576Z,7.70
2022-11-17T09:09:26.313Z,7.70
2022-11-17T09:11:52.853Z,7.70
2022-11-17T09:14:19.361Z,7.70
2022-11-17T09:16:45.951Z,7.80
2022-11-17T09:19:12.517Z,7.80
2022-11-17T09:21:39.116Z,7.80
2022-11-17T09:24:05.791Z,7.70
2022-11-17T09:26:32.348Z,7.70
2022-11-17T09:29:03.087Z,7.70
2022-11-17T09:31:30.043Z,7.60
2022-11-17T09:33:59.421Z,7.60
2022-11-17T09:36:27.395Z,7.50
2022-11-17T09:38:53.960Z,7.50
2022-11-17T09:41:32.934Z,7.50
2022-11-17T09:44:06.724Z,7.40
2022-11-17T09:46:46.177Z,7.40
2022-11-17T09:49:17.577Z,7.50
2022-11-17T09:51:47.171Z,7.50
2022-11-17T09:54:33.839Z,7.60
2022-11-17T09:57:01.010Z,7.70
2022-11-17T09:59:27.838Z,7.70
2022-11-17T10:01:54.397Z,7.80
2022-11-17T10:04:21.118Z,7.80
2022-11-17T10:06:50.181Z,7.70
2022-11-17T10:09:26.336Z,7.70
2022-11-17T10:11:53.735Z,7.80
2022-11-17T10:14:21.786Z,7.80
2022-11-17T10:16:55.514Z,7.80
2022-11-17T10:19:22.025Z,7.80
2022-11-17T10:21:53.181Z,7.80
2022-11-17T10:24:34.987Z,7.80
2022-11-17T10:27:02.953Z,7.70
2022-11-17T10:29:29.781Z,7.70
2022-11-17T10:31:56.348Z,7.70
2022-11-17T10:34:41.640Z,7.70
2022-11-17T10:37:15.296Z,7.60
2022-11-17T10:39:42.925Z,7.50
2022-11-17T10:42:35.875Z,7.50
2022-11-17T10:45:03.413Z,7.40
2022-11-17T10:47:31.590Z,7.40
2022-11-17T10:50:05.753Z,7.40
2022-11-17T10:52:32.314Z,7.50
2022-11-17T10:55:17.514Z,7.50
2022-11-17T10:57:45.348Z,7.40
2022-11-17T11:00:29.022Z,7.50
2022-11-17T11:03:04.830Z,7.60
2022-11-17T11:05:31.368Z,7.70
2022-11-17T11:08:14.191Z,7.80
2022-11-17T11:10:41.235Z,7.90
2022-11-17T11:13:13.937Z,8.00
2022-11-17T11:15:40.608Z,8.10
2022-11-17T11:18:14.564Z,8.20
2022-11-17T11:20:46.411Z,8.20
2022-11-17T11:23:33.213Z,8.10
2022-11-17T11:26:12.167Z,8.10
2022-11-17T11:28:55.019Z,8.30
2022-11-17T11:31:27.477Z,8.30
2022-11-17T11:34:00.700Z,8.40
2022-11-17T11:36:34.360Z,8.30
2022-11-17T11:39:05.972Z,8.20
2022-11-17T11:41:41.609Z,8.20
2022-11-17T11:44:25.747Z,8.30
2022-11-17T11:47:07.565Z,8.20
2022-11-17T11:49:48.688Z,8.20
2022-11-17T11:52:18.954Z,8.30
2022-11-17T11:54:51.249Z,8.30
2022-11-17T11:57:24.952Z,8.40
2022-11-17T11:59:51.511Z,8.40
2022-11-17T12:02:24.875Z,8.50
2022-11-17T12:05:10.424Z,8.50
2022-11-17T12:07:56.054Z,8.60
2022-11-17T12:10:22.555Z,8.80
2022-11-17T12:12:49.376Z,9.00
2022-11-17T12:15:18.757Z,9.10
2022-11-17T12:17:54.377Z,9.30
2022-11-17T12:20:39.374Z,9.20
2022-11-17T12:23:21.980Z,9.20
2022-11-17T12:25:54.036Z,9.20
2022-11-17T12:28:38.062Z,9.30
2022-11-17T12:31:10.755Z,9.20
2022-11-17T12:34:03.487Z,9.10
2022-11-17T12:36:34.072Z,9.00
2022-11-17T12:39:01.907Z,8.90
2022-11-17T12:41:47.161Z,8.80
2022-11-17T12:44:32.240Z,8.90
2022-11-17T12:47:04.363Z,8.70
2022-11-17T12:49:38.676Z,8.80
2022-11-17T12:52:07.844Z,8.80
2022-11-17T12:54:42.038Z,8.80
2022-11-17T12:57:11.119Z,8.80
2022-11-17T12:59:43.785Z,8.70
2022-11-17T13:02:22.344Z,8.70
2022-11-17T13:04:50.958Z,8.70
2022-11-17T13:07:22.265Z,8.70
2022-11-17T13:09:50.687Z,8.70
2022-11-17T13:12:21.568Z,8.70
2022-11-17T13:15:06.298Z,8.70
2022-11-17T13:17:32.918Z,8.70
2022-11-17T13:20:00.972Z,8.60
2022-11-17T13:22:27.584Z,8.60
2022-11-17T13:24:54.530Z,8.50
2022-11-17T13:27:23.093Z,8.60
2022-11-17T13:29:50.126Z,8.60
2022-11-17T13:32:16.905Z,8.60
2022-11-17T13:34:48.171Z,8.60
2022-11-17T13:37:16.059Z,8.70
2022-11-17T13:39:53.149Z,8.70
2022-11-17T13:42:20.034Z,8.70
2022-11-17T13:44:46.689Z,8.70
2022-11-17T13:47:20.845Z,8.70
2022-11-17T13:49:47.842Z,8.70
2022-11-17T13:52:31.082Z,8.80
2022-11-17T13:55:01.499Z,8.70
2022-11-17T13:57:28.941Z,8.70
2022-11-17T13:59:55.889Z,8.70
2022-11-17T14:02:23.577Z,8.70
2022-11-17T14:05:08.605Z,8.60
2022-11-17T14:07:36.940Z,8.60
2022-11-17T14:10:21.647Z,8.50
2022-11-17T14:12:51.225Z,8.50
2022-11-17T14:15:20.840Z,8.40
2022-11-17T14:17:50.868Z,8.40
2022-11-17T14:20:23.502Z,8.30
2022-11-17T14:23:04.316Z,8.20
2022-11-17T14:25:39.228Z,8.20
2022-11-17T14:28:12.812Z,8.20
2022-11-17T14:30:39.941Z,8.10
2022-11-17T14:33:12.065Z,8.10
2022-11-17T14:35:43.252Z,8.00
2022-11-17T14:38:14.963Z,8.00
2022-11-17T14:40:41.632Z,7.90
2022-11-17T14:43:08.176Z,8.00
2022-11-17T14:45:35.347Z,7.90
2022-11-17T14:48:02.469Z,7.90
2022-11-17T14:50:29.081Z,7.90
2022-11-17T14:52:55.615Z,7.90
2022-11-17T14:55:22.308Z,7.90
2022-11-17T14:57:48.835Z,7.90
2022-11-17T15:00:20.182Z,7.90
2022-11-17T15:02:47.435Z,7.90
2022-11-17T15:05:14.881Z,7.90
2022-11-17T15:07:42.386Z,7.90
2022-11-17T15:10:09.172Z,7.90
2022-11-17T15:12:35.718Z,7.90
2022-11-17T15:15:02.325Z,7.90
2022-11-17T15:17:29.058Z,8.00
2022-11-17T15:19:55.613Z,8.00
2022-11-17T15:22:22.293Z,8.00
2022-11-17T15:24:48.805Z,8.00
2022-11-17T15:27:15.904Z,8.00
2022-11-17T15:29:42.454Z,8.00
2022-11-17T15:32:09.070Z,8.00
2022-11-17T15:34:35.891Z,8.10
2022-11-17T15:37:02.511Z,8.10
2022-11-17T15:39:30.487Z,8.00
2022-11-17T15:41:57.113Z,8.00
2022-11-17T15:44:24.414Z,8.00
2022-11-17T15:46:50.924Z,8.00
2022-11-17T15:49:18.070Z,8.00
2022-11-17T15:51:45.080Z,8.00
2022-11-17T15:54:16.403Z,7.90
2022-11-17T15:56:46.383Z,7.90
2022-11-17T15:59:13.615Z,7.90
2022-11-17T16:01:41.051Z,7.90
2022-11-17T16:04:08.629Z,7.90
2022-11-17T16:06:37.379Z,7.90
2022-11-17T16:09:04.225Z,8.00
2022-11-17T16:11:30.865Z,8.00
2022-11-17T16:13:58.148Z,8.00
2022-11-17T16:16:25.883Z,8.00
2022-11-17T16:18:52.445Z,8.00
2022-11-17T16:21:18.963Z,8.00
2022-11-17T16:23:49.535Z,8.00
2022-11-17T16:26:19.118Z,8.00
2022-11-17T16:28:46.871Z,8.10
2022-11-17T16:31:13.739Z,8.10
2022-11-17T16:33:40.499Z,8.00
2022-11-17T16:36:07.295Z,8.00
2022-11-17T16:38:33.902Z,8.00
2022-11-17T16:41:01.608Z,8.10
2022-11-17T16:43:28.152Z,8.00
2022-11-17T16:45:54.645Z,8.00
2022-11-17T16:48:21.214Z,8.10
2022-11-17T16:50:47.803Z,8.20
2022-11-17T16:53:14.311Z,8.20
2022-11-17T16:55:40.820Z,8.10
2022-11-17T16:58:07.464Z,8.20
2022-11-17T17:00:37.426Z,8.20
2022-11-17T17:03:04.062Z,8.20
2022-11-17T17:05:31.090Z,8.20
2022-11-17T17:07:57.668Z,8.10
2022-11-17T17:10:24.795Z,8.10
2022-11-17T17:12:51.331Z,8.30
2022-11-17T17:15:18.087Z,8.30
2022-11-17T17:17:44.658Z,8.20
2022-11-17T17:20:11.399Z,8.20
2022-11-17T17:22:38.008Z,8.20
2022-11-17T17:25:04.817Z,8.20
2022-11-17T17:27:31.353Z,8.10
2022-11-17T17:29:58.010Z,8.00
2022-11-17T17:32:24.565Z,8.00
2022-11-17T17:34:51.265Z,7.90
2022-11-17T17:37:18.122Z,7.80
2022-11-17T17:39:44.684Z,7.70
2022-11-17T17:42:11.811Z,7.70
2022-11-17T17:44:38.336Z,7.70
2022-11-17T17:47:05.118Z,7.60
2022-11-17T17:49:31.646Z,7.70
2022-11-17T17:51:58.174Z,7.60
2022-11-17T17:54:26.297Z,7.60
2022-11-17T17:56:52.960Z,7.60
2022-11-17T17:59:19.972Z,7.70
2022-11-17T18:01:47.542Z,7.60
2022-11-17T18:04:16.589Z,7.70
2022-11-17T18:06:45.980Z,7.80
2022-11-17T18:09:14.510Z,7.80
2022-11-17T18:11:49.354Z,7.80
2022-11-17T18:14:20.377Z,7.80
2022-11-17T18:16:47.870Z,7.70
2022-11-17T18:19:15.399Z,7.70
2022-11-17T18:21:42.647Z,7.70
2022-11-17T18:24:09.886Z,7.70
2022-11-17T18:26:37.916Z,7.70
2022-11-17T18:29:06.339Z,7.70
2022-11-17T18:31:33.895Z,7.60
2022-11-17T18:36:53.753Z,7.60
2022-11-17T18:39:21.259Z,7.50
2022-11-17T18:41:47.844Z,7.50
2022-11-17T18:44:15.026Z,7.40
2022-11-17T18:46:41.577Z,7.40
2022-11-17T18:49:08.125Z,7.40
2022-11-17T18:51:34.663Z,7.30
2022-11-17T18:54:01.784Z,7.30
2022-11-17T18:56:31.127Z,7.20
2022-11-17T18:58:57.762Z,7.20
2022-11-17T19:01:25.255Z,7.10
2022-11-17T19:03:53.355Z,7.00
2022-11-17T19:06:21.171Z,6.90
2022-11-17T19:08:48.230Z,6.90
2022-11-17T19:11:15.542Z,6.80
2022-11-17T19:13:42.242Z,6.80
2022-11-17T19:16:11.803Z,6.80
2022-11-17T19:18:38.811Z,6.90
2022-11-17T19:21:06.074Z,7.00
2022-11-17T19:23:36.333Z,7.00
2022-11-17T19:26:04.259Z,7.00
2022-11-17T19:28:30.972Z,7.00
2022-11-17T19:31:05.419Z,7.10
2022-11-17T19:33:32.775Z,7.20
2022-11-17T19:36:03.548Z,7.20
2022-11-17T19:38:33.589Z,7.20
2022-11-17T19:41:04.090Z,7.20
2022-11-17T19:43:31.074Z,7.20
2022-11-17T19:46:01.490Z,7.20
2022-11-17T19:48:29.494Z,7.30
2022-11-17T19:50:56.271Z,7.30
2022-11-17T19:53:22.933Z,7.30
2022-11-17T19:55:49.534Z,7.40
2022-11-17T19:58:17.207Z,7.40
2022-11-17T20:00:48.566Z,7.40
2022-11-17T20:03:18.089Z,7.40
2022-11-17T20:05:44.875Z,7.40
2022-11-17T20:08:11.523Z,7.50
2022-11-17T20:10:38.103Z,7.50
2022-11-17T20:13:04.699Z,7.60
2022-11-17T20:15:35.087Z,7.60
2022-11-17T20:18:01.889Z,7.50
2022-11-17T20:20:28.419Z,7.50
2022-11-17T20:22:55.357Z,7.50
2022-11-17T20:25:21.868Z,7.50
2022-11-17T20:27:48.478Z,7.40
2022-11-17T20:30:15.638Z,7.40
2022-11-17T20:32:42.263Z,7.40
2022-11-17T20:35:08.936Z,7.40
2022-11-17T20:37:36.083Z,7.40
2022-11-17T20:40:02.623Z,7.40
2022-11-17T20:42:29.148Z,7.40
2022-11-17T20:44:55.765Z,7.40
2022-11-17T20:47:27.364Z,7.40
2022-11-17T20:49:55.020Z,7.40
2022-11-17T20:52:21.544Z,7.40
2022-11-17T20:54:48.138Z,7.40
2022-11-17T20:57:14.708Z,7.30
2022-11-17T20:59:41.240Z,7.30
2022-11-17T21:02:08.787Z,7.40
2022-11-17T21:04:35.372Z,7.40
2022-11-17T21:07:02.112Z,7.40
2022-11-17T21:09:28.694Z,7.40
2022-11-17T21:11:58.232Z,7.30
2022-11-17T21:14:29.342Z,7.30
2022-11-17T21:16:57.589Z,7.30
2022-11-17T21:19:24.264Z,7.40
2022-11-17T21:21:51.595Z,7.40
2022-11-17T21:24:18.232Z,7.40
2022-11-17T21:26:51.453Z,7.40
2022-11-17T21:29:18.185Z,7.40
2022-11-17T21:31:45.030Z,7.40
2022-11-17T21:34:14.093Z,7.50
2022-11-17T21:36:41.045Z,7.50
2022-11-17T21:39:08.577Z,7.50
2022-11-17T21:41:38.524Z,7.50
2022-11-17T21:44:06.033Z,7.50
2022-11-17T21:46:33.436Z,7.50
2022-11-17T21:49:00.404Z,7.50
2022-11-17T21:51:33.326Z,7.40
2022-11-17T21:54:03.098Z,7.50
2022-11-17T21:56:31.796Z,7.50
2022-11-17T21:59:02.562Z,7.40
2022-11-17T22:01:29.771Z,7.40
2022-11-17T22:03:56.319Z,7.50
2022-11-17T22:06:23.817Z,7.50
2022-11-17T22:08:50.560Z,7.40
2022-11-17T22:11:35.038Z,7.40
2022-11-17T22:14:09.766Z,7.40
2022-11-17T22:16:37.907Z,7.40
2022-11-17T22:19:04.838Z,7.30
2022-11-17T22:21:34.138Z,7.30
2022-11-17T22:24:00.689Z,7.30
2022-11-17T22:26:27.455Z,7.30
2022-11-17T22:28:54.854Z,7.40
2022-11-17T22:31:22.053Z,7.30
2022-11-17T22:33:49.069Z,7.30
2022-11-17T22:36:15.873Z,7.40
2022-11-17T22:38:43.229Z,7.40
2022-11-17T22:41:10.258Z,7.40
2022-11-17T22:43:36.860Z,7.40
2022-11-17T22:46:08.016Z,7.40
2022-11-17T22:48:35.454Z,7.40
2022-11-17T22:51:02.716Z,7.40
2022-11-17T22:53:29.272Z,7.40
2022-11-17T22:56:01.146Z,7.40
2022-11-17T22:58:27.797Z,7.40
2022-11-17T23:00:55.313Z,7.40
2022-11-17T23:03:22.107Z,7.50
2022-11-17T23:05:48.728Z,7.50
2022-11-17T23:08:15.321Z,7.50
2022-11-17T23:10:42.428Z,7.50
2022-11-17T23:13:08.950Z,7.50
2022-11-17T23:15:37.685Z,7.50
2022-11-17T23:18:04.219Z,7.50
2022-11-17T23:20:30.768Z,7.50
2022-11-17T23:22:57.290Z,7.50
2022-11-17T23:25:23.807Z,7.50
2022-11-17T23:27:50.389Z,7.40
2022-11-17T23:30:16.945Z,7.50
2022-11-17T23:32:43.550Z,7.50
2022-11-17T23:35:10.111Z,7.40
2022-11-17T23:37:36.657Z,7.40
2022-11-17T23:40:03.307Z,7.40
2022-11-17T23:42:32.397Z,7.40
2022-11-17T23:44:59.597Z,7.40
2022-11-17T23:47:26.168Z,7.40
2022-11-17T23:49:52.702Z,7.50
2022-11-17T23:52:19.415Z,7.50
2022-11-17T23:54:45.925Z,7.50
2022-11-17T23:57:12.493Z,7.50
2022-11-17T23:59:39.040Z,7.50
